Time;durP1;ratioP1;P1;durP2;ratioP2;P2;SDS_P1;SDS_P2;PMS_P1;PMS_P2;Temp;Humidity;BMP_temperature;BMP_pressure;BME280_temperature;BME280_humidity;BME280_pressure;Samples;Min_cycle;Max_cycle;Signal;HPM_P1;HPM_P2
2022/07/22 00:02:55;;;;;;;6.43;6.03;;;25.80;67.60;;;;;;6276847;28;20227;-67
2022/07/22 00:05:59;;;;;;;7.93;4.70;;;25.70;66.60;;;;;;6277243;28;20231;-67
2022/07/22 00:09:03;;;;;;;5.10;4.80;;;25.70;66.90;;;;;;6277480;28;20249;-67
2022/07/22 00:12:06;;;;;;;5.90;5.50;;;25.70;67.20;;;;;;6276991;28;20240;-67
2022/07/22 00:15:10;;;;;;;5.70;5.10;;;25.60;67.30;;;;;;6276307;28;20242;-67
2022/07/22 00:18:14;;;;;;;5.33;4.97;;;25.50;67.50;;;;;;6276640;28;20519;-67
2022/07/22 00:21:18;;;;;;;5.37;4.97;;;25.40;67.80;;;;;;6276561;28;20231;-67
2022/07/22 00:24:21;;;;;;;5.57;5.17;;;25.40;68.20;;;;;;6276898;28;20233;-67
2022/07/22 00:27:25;;;;;;;5.57;5.07;;;25.30;68.50;;;;;;6276189;28;20692;-66
2022/07/22 00:30:28;;;;;;;5.63;5.10;;;25.20;68.90;;;;;;6276184;28;20242;-67
2022/07/22 00:33:31;;;;;;;5.13;4.73;;;25.20;68.90;;;;;;6275931;28;20227;-66
2022/07/22 00:36:36;;;;;;;5.97;5.27;;;25.20;69.40;;;;;;6276372;28;20231;-66
2022/07/22 00:39:39;;;;;;;6.90;5.10;;;25.00;69.80;;;;;;6275244;28;20234;-67
2022/07/22 00:42:42;;;;;;;4.80;4.50;;;25.00;70.00;;;;;;6276000;28;20238;-67
2022/07/22 00:45:45;;;;;;;5.97;5.40;;;25.00;70.20;;;;;;6275886;28;20250;-67
2022/07/22 00:48:49;;;;;;;5.40;4.90;;;24.90;70.40;;;;;;6275455;28;20228;-67
2022/07/22 00:51:53;;;;;;;6.13;5.70;;;24.90;70.90;;;;;;6275688;28;20227;-67
2022/07/22 00:54:57;;;;;;;5.93;5.53;;;24.80;71.30;;;;;;6275365;28;20246;-67
2022/07/22 00:58:00;;;;;;;5.50;5.00;;;24.80;71.70;;;;;;6275371;28;20676;-67
2022/07/22 01:01:04;;;;;;;4.90;4.53;;;24.80;72.00;;;;;;6275475;28;20238;-67
2022/07/22 01:04:08;;;;;;;5.40;5.00;;;24.70;72.10;;;;;;6275392;28;20242;-67
2022/07/22 01:07:13;;;;;;;5.63;5.20;;;24.60;72.00;;;;;;6275370;28;20228;-67
2022/07/22 01:10:16;;;;;;;4.83;4.50;;;24.60;72.10;;;;;;6275288;28;20227;-66
2022/07/22 01:13:19;;;;;;;5.57;5.10;;;24.50;72.00;;;;;;6275137;28;20199;-66
2022/07/22 01:16:23;;;;;;;4.73;4.33;;;24.40;72.10;;;;;;6275668;28;20210;-66
2022/07/22 01:19:26;;;;;;;5.70;5.30;;;24.40;72.50;;;;;;6274653;28;20769;-65
2022/07/22 01:22:31;;;;;;;4.87;4.57;;;24.30;72.60;;;;;;6275425;28;20223;-65
2022/07/22 01:25:35;;;;;;;5.67;5.27;;;24.30;72.70;;;;;;6281162;28;20231;-65
2022/07/22 01:28:39;;;;;;;4.80;4.40;;;24.20;72.70;;;;;;6278849;28;20578;-65
2022/07/22 01:31:42;;;;;;;5.60;5.10;;;24.20;72.80;;;;;;6275361;28;20227;-65
2022/07/22 01:34:45;;;;;;;5.17;4.73;;;24.10;73.10;;;;;;6275279;28;20658;-65
2022/07/22 01:37:49;;;;;;;5.00;4.60;;;24.10;73.10;;;;;;6275067;28;20231;-65
2022/07/22 01:40:53;;;;;;;5.60;5.10;;;24.10;73.30;;;;;;6275193;28;20235;-66
2022/07/22 01:43:56;;;;;;;5.83;5.17;;;24.10;73.60;;;;;;6274783;28;20334;-65
2022/07/22 01:47:00;;;;;;;5.57;5.17;;;24.00;73.90;;;;;;6265649;28;20245;-65
2022/07/22 01:50:03;;;;;;;5.70;5.20;;;24.00;73.90;;;;;;6274002;28;20227;-66
2022/07/22 01:53:08;;;;;;;5.50;5.00;;;24.00;74.10;;;;;;6274601;28;20227;-66
2022/07/22 01:56:11;;;;;;;6.70;5.43;;;23.90;74.10;;;;;;6274910;28;20224;-65
2022/07/22 01:59:15;;;;;;;5.47;5.07;;;23.90;74.00;;;;;;6274065;28;20242;-65
2022/07/22 02:02:18;;;;;;;4.63;4.23;;;23.80;74.10;;;;;;6274715;28;20238;-65
2022/07/22 02:05:21;;;;;;;5.30;5.00;;;23.80;74.50;;;;;;6274761;28;20230;-65
2022/07/22 02:08:25;;;;;;;5.90;5.40;;;23.70;74.50;;;;;;6274521;28;20234;-65
2022/07/22 02:11:29;;;;;;;5.17;4.80;;;23.70;74.40;;;;;;6274188;28;20273;-65
2022/07/22 02:14:32;;;;;;;5.57;5.27;;;23.70;74.70;;;;;;6273912;28;20223;-65
2022/07/22 02:17:35;;;;;;;5.80;5.33;;;23.70;74.80;;;;;;6274203;28;20250;-65
2022/07/22 02:20:38;;;;;;;6.33;5.70;;;23.70;74.50;;;;;;6273933;28;20250;-65
2022/07/22 02:23:43;;;;;;;5.10;4.70;;;23.70;74.90;;;;;;6274384;28;20228;-66
2022/07/22 02:26:46;;;;;;;5.40;5.00;;;23.60;75.00;;;;;;6274081;28;20238;-66
2022/07/22 02:29:49;;;;;;;5.73;5.13;;;23.60;75.20;;;;;;6274015;28;20661;-66
2022/07/22 02:32:52;;;;;;;5.50;5.10;;;23.50;75.20;;;;;;6274052;28;20668;-66
2022/07/22 02:35:56;;;;;;;6.27;5.87;;;23.50;75.20;;;;;;6274414;28;20224;-65
2022/07/22 02:39:01;;;;;;;5.80;5.40;;;23.40;75.30;;;;;;6274049;28;20232;-65
2022/07/22 02:42:04;;;;;;;4.83;4.53;;;23.40;75.40;;;;;;6274198;28;20584;-65
2022/07/22 02:45:09;;;;;;;5.20;4.90;;;23.40;75.40;;;;;;6273972;28;20687;-65
2022/07/22 02:48:12;;;;;;;5.97;5.47;;;23.40;75.50;;;;;;6274058;28;20251;-65
2022/07/22 02:51:15;;;;;;;6.70;5.50;;;23.30;75.40;;;;;;6269486;28;20538;-67
2022/07/22 02:54:20;;;;;;;6.00;5.50;;;23.30;75.60;;;;;;6274542;28;20599;-67
2022/07/22 02:57:23;;;;;;;5.83;5.43;;;23.10;76.20;;;;;;6274019;28;20228;-67
2022/07/22 03:00:26;;;;;;;5.50;5.00;;;23.00;76.50;;;;;;6273651;28;20307;-67
2022/07/22 03:03:29;;;;;;;4.87;4.57;;;22.90;77.10;;;;;;6277728;28;20243;-65
2022/07/22 03:06:32;;;;;;;5.00;4.60;;;22.90;77.30;;;;;;6278082;28;20696;-65
2022/07/22 03:09:37;;;;;;;5.70;5.20;;;22.90;77.40;;;;;;6277876;28;20582;-65
2022/07/22 03:12:40;;;;;;;5.47;5.07;;;22.90;77.60;;;;;;6278395;28;20240;-67
2022/07/22 03:15:43;;;;;;;5.53;4.63;;;22.90;77.60;;;;;;6280296;28;20230;-66
2022/07/22 03:18:46;;;;;;;6.10;5.10;;;22.90;77.90;;;;;;6292449;28;20236;-66
2022/07/22 03:21:49;;;;;;;6.63;5.17;;;22.80;78.30;;;;;;6278368;28;20231;-66
2022/07/22 03:24:54;;;;;;;5.60;5.20;;;22.70;78.50;;;;;;6277893;28;20247;-66
2022/07/22 03:27:57;;;;;;;5.00;4.60;;;22.80;78.20;;;;;;6277661;28;20579;-66
2022/07/22 03:31:00;;;;;;;5.27;4.87;;;22.80;77.40;;;;;;6277336;28;20235;-66
2022/07/22 03:34:03;;;;;;;5.57;5.07;;;22.80;77.40;;;;;;6277961;28;20242;-66
2022/07/22 03:37:06;;;;;;;6.07;5.53;;;22.80;77.90;;;;;;6277343;28;20242;-66
2022/07/22 03:40:12;;;;;;;5.53;5.10;;;22.70;78.60;;;;;;6276927;28;20227;-66
2022/07/22 03:43:15;;;;;;;5.57;5.07;;;22.70;79.00;;;;;;6277862;28;20627;-66
2022/07/22 03:46:19;;;;;;;5.63;5.23;;;22.70;79.00;;;;;;6277256;28;20214;-66
2022/07/22 03:49:22;;;;;;;6.00;5.57;;;22.70;79.00;;;;;;6277496;28;20220;-66
2022/07/22 03:52:25;;;;;;;5.10;4.70;;;22.70;78.50;;;;;;6272589;28;20552;-66
2022/07/22 03:55:30;;;;;;;4.93;4.60;;;22.80;78.50;;;;;;6277370;28;20661;-65
2022/07/22 03:58:33;;;;;;;5.90;5.40;;;22.70;78.50;;;;;;6276920;28;20685;-65
2022/07/22 04:01:36;;;;;;;5.60;5.10;;;22.70;78.70;;;;;;6277682;28;20223;-65
2022/07/22 04:04:40;;;;;;;5.80;5.30;;;22.70;78.70;;;;;;6277338;28;20227;-65
2022/07/22 04:07:43;;;;;;;5.60;5.10;;;22.80;78.50;;;;;;6277320;28;20564;-65
2022/07/22 04:10:47;;;;;;;5.97;5.47;;;22.80;78.00;;;;;;6277368;28;20238;-65
2022/07/22 04:13:50;;;;;;;5.60;5.10;;;22.80;78.10;;;;;;6276352;28;20567;-65
2022/07/22 04:16:54;;;;;;;5.40;4.90;;;22.90;77.60;;;;;;6276430;28;20223;-65
2022/07/22 04:19:59;;;;;;;5.07;4.53;;;23.10;77.80;;;;;;6275912;28;20223;-65
2022/07/22 04:23:02;;;;;;;6.07;5.20;;;23.10;77.80;;;;;;6276696;28;20224;-65
2022/07/22 04:26:07;;;;;;;6.57;5.97;;;23.20;77.60;;;;;;6276455;28;20227;-66
2022/07/22 04:29:10;;;;;;;6.40;5.90;;;23.30;77.30;;;;;;6276282;28;20234;-66
2022/07/22 04:32:13;;;;;;;5.80;5.30;;;23.30;77.30;;;;;;6276179;28;20224;-66
2022/07/22 04:35:16;;;;;;;5.57;5.03;;;23.30;77.40;;;;;;6276412;28;20224;-66
2022/07/22 04:38:19;;;;;;;6.77;6.27;;;23.30;78.00;;;;;;6275873;28;20284;-66
2022/07/22 04:41:24;;;;;;;6.40;5.80;;;23.40;78.30;;;;;;6276213;28;20238;-66
2022/07/22 04:44:27;;;;;;;7.20;5.80;;;23.60;78.70;;;;;;6276073;28;20239;-66
2022/07/22 04:47:30;;;;;;;7.00;6.40;;;23.70;79.50;;;;;;6276046;28;20549;-67
2022/07/22 04:50:36;;;;;;;6.33;5.83;;;23.90;78.70;;;;;;6275821;28;20228;-66
2022/07/22 04:53:39;;;;;;;6.63;6.03;;;24.00;78.30;;;;;;6275995;28;20254;-67
2022/07/22 04:56:51;;;;;;;6.90;6.40;;;24.20;77.20;;;;;;6275920;28;20312;-66
2022/07/22 04:59:54;;;;;;;7.00;6.50;;;24.30;77.30;;;;;;6273761;28;20238;-66
2022/07/22 05:02:57;;;;;;;7.20;6.60;;;24.40;77.50;;;;;;6275761;28;20227;-66
2022/07/22 05:06:01;;;;;;;9.50;6.93;;;24.60;78.00;;;;;;6275180;28;20688;-64
2022/07/22 05:09:04;;;;;;;7.53;6.83;;;24.70;78.10;;;;;;6273714;28;20670;-65
2022/07/22 05:12:09;;;;;;;7.77;7.10;;;24.80;77.70;;;;;;6274104;28;20697;-64
2022/07/22 05:15:12;;;;;;;7.70;7.00;;;25.00;77.40;;;;;;6275122;28;20231;-64
2022/07/22 05:18:16;;;;;;;9.30;8.70;;;25.10;77.50;;;;;;6276479;28;20588;-65
2022/07/22 05:21:19;;;;;;;8.87;8.17;;;25.10;77.50;;;;;;6275460;28;20228;-64
2022/07/22 05:24:22;;;;;;;9.50;8.70;;;25.20;77.70;;;;;;6274724;28;20227;-64
2022/07/22 05:27:27;;;;;;;8.70;8.10;;;25.50;77.40;;;;;;6275066;28;20242;-64
2022/07/22 05:30:30;;;;;;;10.60;9.63;;;25.70;77.10;;;;;;6280547;28;20487;-64
2022/07/22 05:33:33;;;;;;;10.57;9.47;;;25.80;76.70;;;;;;6282832;28;20223;-64
2022/07/22 05:36:36;;;;;;;10.33;9.53;;;25.80;76.50;;;;;;6279163;28;20694;-64
2022/07/22 05:39:40;;;;;;;11.60;10.60;;;25.90;76.50;;;;;;6273906;28;20235;-64
2022/07/22 05:42:44;;;;;;;14.73;9.57;;;26.00;76.40;;;;;;6273813;28;20572;-64
2022/07/22 05:45:47;;;;;;;11.93;10.80;;;26.10;76.20;;;;;;6274627;28;20227;-66
2022/07/22 05:48:51;;;;;;;12.20;11.00;;;26.20;75.80;;;;;;6274336;28;20238;-65
2022/07/22 05:51:57;;;;;;;11.13;10.17;;;26.40;75.90;;;;;;6273932;28;20225;-66
2022/07/22 05:55:01;;;;;;;12.03;11.10;;;26.50;76.20;;;;;;6274857;28;20547;-65
2022/07/22 05:58:05;;;;;;;12.60;11.40;;;26.70;76.00;;;;;;6274289;28;20566;-65
2022/07/22 06:01:09;;;;;;;12.33;11.43;;;26.90;76.70;;;;;;6274790;28;20318;-64
2022/07/22 06:04:12;;;;;;;12.03;10.93;;;27.30;75.70;;;;;;6265019;28;20363;-64
2022/07/22 06:07:15;;;;;;;12.43;11.43;;;27.70;74.50;;;;;;6274240;28;20234;-64
2022/07/22 06:10:18;;;;;;;12.20;11.20;;;28.20;73.60;;;;;;6273834;28;20227;-66
2022/07/22 06:13:23;;;;;;;13.10;12.10;;;28.70;71.70;;;;;;6274805;28;20206;-65
2022/07/22 06:16:26;;;;;;;12.93;11.93;;;29.20;70.50;;;;;;6274616;28;20236;-66
2022/07/22 06:19:30;;;;;;;12.93;11.83;;;29.60;69.30;;;;;;6273977;28;20239;-65
2022/07/22 06:22:33;;;;;;;12.50;11.60;;;30.30;67.80;;;;;;6273988;28;20203;-66
2022/07/22 06:25:36;;;;;;;12.57;11.57;;;30.70;66.20;;;;;;6274908;28;20288;-66
2022/07/22 06:28:47;;;;;;;13.02;11.95;;;31.20;64.50;;;;;;6273934;28;20238;-66
2022/07/22 06:31:50;;;;;;;11.65;10.75;;;31.50;62.10;;;;;;6274433;28;20685;-65
2022/07/22 06:34:53;;;;;;;12.13;11.13;;;32.00;60.10;;;;;;6274127;28;20223;-64
2022/07/22 06:37:56;;;;;;;12.35;11.50;;;32.50;59.10;;;;;;6277055;28;20223;-65
2022/07/22 06:41:09;;;;;;;11.95;11.00;;;33.10;57.90;;;;;;6279064;28;20728;-65
2022/07/22 06:44:13;;;;;;;12.52;11.43;;;33.70;56.20;;;;;;6278936;28;20226;-65
2022/07/22 06:47:16;;;;;;;11.90;10.98;;;34.40;54.90;;;;;;6279138;28;20235;-65
2022/07/22 06:50:21;;;;;;;12.13;11.13;;;34.90;53.70;;;;;;6278488;28;20223;-65
2022/07/22 06:53:25;;;;;;;11.23;10.32;;;35.30;52.70;;;;;;6278908;28;20245;-65
2022/07/22 06:56:29;;;;;;;10.35;9.27;;;35.60;50.70;;;;;;6279207;28;20227;-66
2022/07/22 06:59:33;;;;;;;11.45;10.65;;;35.50;50.50;;;;;;6278551;28;20314;-66
2022/07/22 07:02:37;;;;;;;10.30;9.27;;;35.90;49.80;;;;;;6278109;28;20227;-67
2022/07/22 07:05:40;;;;;;;10.13;9.43;;;36.10;46.70;;;;;;6274004;28;20231;-67
2022/07/22 07:08:44;;;;;;;10.13;9.40;;;36.60;46.50;;;;;;6278044;28;20246;-66
2022/07/22 07:11:47;;;;;;;9.73;9.02;;;36.90;46.20;;;;;;6277872;28;20231;-66
2022/07/22 07:14:52;;;;;;;10.63;9.52;;;37.40;44.90;;;;;;6278064;28;20696;-66
2022/07/22 07:18:15;;;;;;;9.75;9.05;;;37.80;44.30;;;;;;6277652;28;20235;-67
2022/07/22 07:21:20;;;;;;;10.38;9.25;;;38.40;43.50;;;;;;6277867;28;20235;-67
2022/07/22 07:24:23;;;;;;;10.60;9.80;;;39.00;42.80;;;;;;6278502;28;20231;-69
2022/07/22 07:27:26;;;;;;;9.88;9.25;;;39.80;41.40;;;;;;6280511;28;20661;-69
2022/07/22 07:30:31;;;;;;;9.55;8.95;;;40.30;40.40;;;;;;6278226;28;20609;-69
2022/07/22 07:33:35;;;;;;;12.00;9.35;;;40.50;39.00;;;;;;6277557;28;20231;-69
2022/07/22 07:36:38;;;;;;;9.80;9.10;;;40.70;38.30;;;;;;6277734;28;20552;-69
2022/07/22 07:39:41;;;;;;;11.30;10.35;;;40.80;38.20;;;;;;6277056;28;20226;-69
2022/07/22 07:42:45;;;;;;;10.52;9.73;;;40.70;38.20;;;;;;6276783;28;20803;-69
2022/07/22 07:46:00;;;;;;;9.52;8.80;;;41.30;37.80;;;;;;6277557;28;20235;-70
2022/07/22 07:49:03;;;;;;;10.07;9.35;;;41.30;37.00;;;;;;6276794;28;20254;-68
2022/07/22 07:52:06;;;;;;;9.20;8.43;;;42.10;36.10;;;;;;6277151;28;20234;-69
2022/07/22 07:55:15;;;;;;;9.55;8.85;;;42.70;35.60;;;;;;6278383;28;20227;-67
2022/07/22 07:58:22;;;;;;;9.15;8.55;;;43.40;34.40;;;;;;6256807;28;20299;-66
2022/07/22 08:01:26;;;;;;;9.95;9.23;;;43.50;33.30;;;;;;6281045;28;20238;-66
2022/07/22 08:04:50;;;;;;;10.32;9.57;;;43.70;33.30;;;;;;6278100;28;20235;-67
2022/07/22 08:08:01;;;;;;;10.60;9.80;;;43.10;33.70;;;;;;6268477;28;20534;-69
2022/07/22 08:11:04;;;;;;;10.48;9.68;;;42.30;34.50;;;;;;6276780;28;20231;-69
2022/07/22 08:14:08;;;;;;;9.35;8.63;;;42.60;35.20;;;;;;6276816;28;20241;-69
2022/07/22 08:17:12;;;;;;;10.32;9.50;;;42.10;35.10;;;;;;6276600;28;20223;-69
2022/07/22 08:20:16;;;;;;;10.40;9.57;;;42.10;35.00;;;;;;6276096;28;20235;-69
2022/07/22 08:23:24;;;;;;;9.75;8.95;;;41.60;35.00;;;;;;6276301;28;20235;-68
2022/07/22 08:26:29;;;;;;;9.27;8.50;;;40.90;35.70;;;;;;6277532;28;20227;-66
2022/07/22 08:29:34;;;;;;;9.85;9.25;;;40.40;36.40;;;;;;6276809;28;20249;-66
2022/07/22 08:32:39;;;;;;;10.30;9.38;;;39.50;37.40;;;;;;6275936;28;20304;-65
2022/07/22 08:35:42;;;;;;;10.77;9.80;;;38.90;38.80;;;;;;6276042;28;20312;-65
2022/07/22 08:38:45;;;;;;;11.20;10.40;;;37.90;40.80;;;;;;6276204;28;20555;-66
2022/07/22 08:41:49;;;;;;;10.82;10.13;;;37.60;41.20;;;;;;6276609;28;20227;-67
2022/07/22 08:44:53;;;;;;;11.07;10.18;;;37.30;41.50;;;;;;6276313;28;20249;-66
2022/07/22 08:48:03;;;;;;;11.02;10.13;;;36.90;42.00;;;;;;6276523;28;20239;-66
2022/07/22 08:51:06;;;;;;;11.68;10.57;;;36.80;43.10;;;;;;6276152;28;20293;-66
2022/07/22 08:54:10;;;;;;;10.23;9.48;;;36.60;42.30;;;;;;6275924;28;20249;-66
2022/07/22 08:57:13;;;;;;;10.32;9.57;;;36.50;42.30;;;;;;6275744;28;20238;-66
2022/07/22 09:00:19;;;;;;;11.10;10.02;;;36.10;43.10;;;;;;6274816;28;20572;-66
2022/07/22 09:03:27;;;;;;;10.05;9.25;;;35.80;43.20;;;;;;6275456;28;20310;-66
2022/07/22 09:06:33;;;;;;;11.10;10.20;;;35.60;43.70;;;;;;6275434;28;20242;-65
2022/07/22 09:09:36;;;;;;;10.25;9.55;;;35.70;43.90;;;;;;6275278;28;20242;-65
2022/07/22 09:12:53;;;;;;;10.70;10.00;;;35.60;44.10;;;;;;6270441;28;20238;-66
2022/07/22 09:15:56;;;;;;;11.30;10.50;;;35.70;44.50;;;;;;6275029;28;20231;-66
2022/07/22 09:19:01;;;;;;;10.82;9.88;;;35.70;44.60;;;;;;6274563;28;20601;-67
2022/07/22 09:22:05;;;;;;;11.02;10.10;;;35.30;44.90;;;;;;6274502;28;20231;-65
2022/07/22 09:25:28;;;;;;;10.88;9.88;;;35.30;45.20;;;;;;6274640;28;20223;-65
2022/07/22 09:28:31;;;;;;;10.98;10.18;;;35.10;45.60;;;;;;6274844;28;20231;-67
2022/07/22 09:31:37;;;;;;;11.13;10.30;;;35.00;45.40;;;;;;6283980;28;20280;-66
2022/07/22 09:34:43;;;;;;;10.25;9.45;;;34.60;45.80;;;;;;6288576;28;20314;-66
2022/07/22 09:37:52;;;;;;;11.23;10.43;;;34.70;46.00;;;;;;6283116;28;20227;-69
2022/07/22 09:40:55;;;;;;;10.32;9.52;;;34.70;45.90;;;;;;6278625;28;20250;-69
2022/07/22 09:44:23;;;;;;;10.82;9.88;;;34.80;46.00;;;;;;6289655;28;20231;-65
2022/07/22 09:47:30;;;;;;;11.25;10.15;;;34.50;46.20;;;;;;6281821;28;20229;-63
2022/07/22 09:50:42;;;;;;;10.48;9.68;;;34.50;46.10;;;;;;6277084;28;20260;-64
2022/07/22 09:53:46;;;;;;;10.93;10.13;;;34.70;46.10;;;;;;6274312;28;20697;-65
2022/07/22 09:56:49;;;;;;;10.63;9.80;;;34.70;45.90;;;;;;6274179;28;20234;-65
2022/07/22 09:59:52;;;;;;;10.02;9.30;;;34.50;45.80;;;;;;6279293;28;20564;-66
2022/07/22 10:02:58;;;;;;;10.20;9.32;;;34.60;46.00;;;;;;6274162;28;20235;-66
2022/07/22 10:06:05;;;;;;;10.70;9.90;;;34.60;45.50;;;;;;6274528;28;20585;-67
2022/07/22 10:09:09;;;;;;;10.15;9.35;;;34.60;45.20;;;;;;6274690;28;20575;-71
2022/07/22 10:12:18;;;;;;;10.43;9.63;;;34.70;45.80;;;;;;6276914;28;20219;-68
2022/07/22 10:15:24;;;;;;;9.13;8.35;;;34.90;45.80;;;;;;6272664;28;20231;-64
2022/07/22 10:18:35;;;;;;;9.95;9.25;;;34.60;45.20;;;;;;6289931;28;20558;-65
2022/07/22 10:21:49;;;;;;;9.27;8.68;;;34.40;45.70;;;;;;6277369;28;20223;-65
2022/07/22 10:25:00;;;;;;;10.88;9.90;;;34.70;45.90;;;;;;6295324;28;20222;-65
2022/07/22 10:28:05;;;;;;;10.00;9.25;;;34.80;45.90;;;;;;6303714;28;20238;-66
2022/07/22 10:31:19;;;;;;;10.10;9.40;;;35.10;45.60;;;;;;6303992;28;20233;-66
2022/07/22 10:34:23;;;;;;;11.10;10.23;;;34.90;43.60;;;;;;6303654;28;20206;-66
2022/07/22 10:37:40;;;;;;;9.38;8.68;;;34.60;44.80;;;;;;6303699;28;20224;-66
2022/07/22 10:40:50;;;;;;;9.65;8.70;;;34.80;44.80;;;;;;6303829;28;20230;-66
2022/07/22 10:43:53;;;;;;;9.25;8.65;;;34.50;44.40;;;;;;6303501;28;20238;-66
2022/07/22 10:46:58;;;;;;;10.00;9.30;;;34.40;44.50;;;;;;6303301;28;20293;-67
2022/07/22 10:50:35;;;;;;;9.07;8.48;;;34.40;44.60;;;;;;6303364;28;20668;-67
2022/07/22 10:53:59;;;;;;;9.93;9.23;;;34.50;45.00;;;;;;6302894;28;20226;-67
2022/07/22 10:57:03;;;;;;;11.80;10.65;;;34.70;44.80;;;;;;6277541;28;20235;-67
2022/07/22 11:00:07;;;;;;;9.32;8.63;;;34.80;44.80;;;;;;6278193;28;20241;-67
2022/07/22 11:03:11;;;;;;;10.25;9.45;;;34.90;44.60;;;;;;6277986;28;20227;-67
2022/07/22 11:06:23;;;;;;;10.15;9.15;;;35.10;44.70;;;;;;6277862;28;20255;-67
2022/07/22 11:09:35;;;;;;;9.88;9.15;;;34.90;44.20;;;;;;6278023;28;20239;-67
2022/07/22 11:12:38;;;;;;;8.90;8.20;;;34.70;44.90;;;;;;6292978;28;20296;-65
2022/07/22 11:15:41;;;;;;;9.48;8.68;;;34.80;44.80;;;;;;6302253;28;20230;-65
2022/07/22 11:18:46;;;;;;;9.48;8.57;;;35.10;44.40;;;;;;6302208;28;20665;-66
2022/07/22 11:21:55;;;;;;;8.25;7.60;;;35.30;43.70;;;;;;6297255;28;20315;-66
2022/07/22 11:25:01;;;;;;;8.93;8.23;;;35.00;43.80;;;;;;6302303;28;20668;-66
2022/07/22 11:28:05;;;;;;;8.70;8.00;;;35.30;43.50;;;;;;6302204;28;20249;-66
2022/07/22 11:31:08;;;;;;;7.78;7.18;;;35.20;42.50;;;;;;6302212;28;20237;-66
2022/07/22 11:34:14;;;;;;;7.32;6.82;;;35.20;41.70;;;;;;6302346;28;20218;-65
2022/07/22 11:37:18;;;;;;;8.82;8.00;;;35.30;41.50;;;;;;6294601;28;20236;-65
2022/07/22 11:40:23;;;;;;;8.38;7.78;;;35.20;41.70;;;;;;6277311;28;20235;-65
2022/07/22 11:43:26;;;;;;;8.55;7.97;;;35.30;41.80;;;;;;6277176;28;20545;-65
2022/07/22 11:46:36;;;;;;;8.23;7.63;;;35.50;42.30;;;;;;6277590;28;20203;-65
2022/07/22 11:49:40;;;;;;;8.65;7.95;;;35.50;41.60;;;;;;6276841;28;20239;-66
2022/07/22 11:52:52;;;;;;;10.18;7.80;;;35.40;40.60;;;;;;6277254;28;20227;-66
2022/07/22 11:56:01;;;;;;;7.97;7.40;;;35.30;40.10;;;;;;6261122;28;20243;-66
2022/07/22 11:59:05;;;;;;;8.35;7.75;;;35.30;41.10;;;;;;6252491;28;20239;-66
2022/07/22 12:02:11;;;;;;;8.35;7.75;;;35.10;40.70;;;;;;6252085;28;20234;-67
2022/07/22 12:05:15;;;;;;;8.93;8.23;;;35.20;41.80;;;;;;6252054;28;20239;-67
2022/07/22 12:08:36;;;;;;;9.50;8.63;;;35.10;42.10;;;;;;6274144;28;20228;-67
2022/07/22 12:11:43;;;;;;;8.48;7.63;;;35.10;42.10;;;;;;6276388;28;20569;-66
2022/07/22 12:14:47;;;;;;;9.77;8.98;;;35.20;42.40;;;;;;6276231;28;20231;-66
2022/07/22 12:17:51;;;;;;;8.88;7.97;;;35.00;42.90;;;;;;6276048;28;20669;-65
2022/07/22 12:20:57;;;;;;;9.48;8.77;;;35.10;42.90;;;;;;6275877;28;20341;-65
2022/07/22 12:24:03;;;;;;;9.43;8.63;;;35.10;43.10;;;;;;6276462;28;20238;-65
2022/07/22 12:27:09;;;;;;;9.20;8.40;;;35.10;43.90;;;;;;6270235;28;20696;-65
2022/07/22 12:30:13;;;;;;;10.02;9.20;;;35.00;43.70;;;;;;6251444;28;20228;-65
2022/07/22 12:33:17;;;;;;;9.40;8.35;;;34.90;43.80;;;;;;6251400;28;20228;-65
2022/07/22 12:36:21;;;;;;;10.30;9.40;;;34.80;44.80;;;;;;6251089;28;20551;-65
2022/07/22 12:39:24;;;;;;;10.30;9.35;;;34.90;45.10;;;;;;6251181;28;20227;-65
2022/07/22 12:42:32;;;;;;;10.35;9.55;;;35.10;44.60;;;;;;6250863;28;20231;-64
2022/07/22 12:45:37;;;;;;;9.27;8.68;;;35.20;44.70;;;;;;6251013;28;20235;-64
2022/07/22 12:48:49;;;;;;;11.18;10.27;;;35.20;45.30;;;;;;6250826;28;20231;-63
2022/07/22 12:52:13;;;;;;;11.00;9.80;;;34.90;45.00;;;;;;6255485;28;20234;-63
2022/07/22 12:55:17;;;;;;;10.13;9.48;;;35.10;44.90;;;;;;6261643;28;20319;-65
2022/07/22 12:58:22;;;;;;;10.73;9.82;;;34.90;44.60;;;;;;6285795;28;20222;-64
2022/07/22 13:01:25;;;;;;;9.48;8.77;;;34.90;44.70;;;;;;6283702;28;20214;-64
2022/07/22 13:04:29;;;;;;;10.23;9.32;;;34.70;45.20;;;;;;6286309;28;20210;-64
2022/07/22 13:07:33;;;;;;;11.27;10.48;;;34.70;45.80;;;;;;6286158;28;20195;-66
2022/07/22 13:10:40;;;;;;;10.40;9.68;;;34.50;45.80;;;;;;6284171;28;20653;-64
2022/07/22 13:13:45;;;;;;;10.60;9.77;;;34.40;45.70;;;;;;6294133;28;20230;-64
2022/07/22 13:16:48;;;;;;;10.63;9.82;;;34.20;46.40;;;;;;6280230;28;20223;-66
2022/07/22 13:19:52;;;;;;;10.75;9.82;;;34.40;46.40;;;;;;6282542;28;20222;-65
2022/07/22 13:22:55;;;;;;;10.35;9.55;;;34.40;46.20;;;;;;6274750;28;20227;-65
2022/07/22 13:25:58;;;;;;;10.93;10.13;;;34.40;45.80;;;;;;6265996;28;20247;-66
2022/07/22 13:29:03;;;;;;;10.88;10.00;;;34.50;45.80;;;;;;6274748;28;20652;-66
2022/07/22 13:32:06;;;;;;;11.55;10.55;;;34.30;46.30;;;;;;6274661;28;20222;-66
2022/07/22 13:35:30;;;;;;;11.13;10.43;;;34.40;46.10;;;;;;6274508;28;20235;-66
2022/07/22 13:38:33;;;;;;;11.50;10.60;;;34.50;46.60;;;;;;6274223;28;20235;-66
2022/07/22 13:41:36;;;;;;;11.15;10.25;;;34.60;45.80;;;;;;6274092;28;20234;-66
2022/07/22 13:44:41;;;;;;;11.98;10.98;;;34.70;45.90;;;;;;6274311;28;20227;-66
2022/07/22 13:47:44;;;;;;;9.80;9.10;;;34.50;46.20;;;;;;6274122;28;20242;-66
2022/07/22 13:50:47;;;;;;;11.25;10.40;;;34.20;46.70;;;;;;6274117;28;20249;-66
2022/07/22 13:53:50;;;;;;;11.00;10.07;;;34.00;47.10;;;;;;6274570;28;20219;-66
2022/07/22 13:56:59;;;;;;;11.10;10.15;;;33.80;47.00;;;;;;6274297;28;20234;-67
2022/07/22 14:00:06;;;;;;;11.25;10.55;;;33.80;47.50;;;;;;6274194;28;20703;-66
2022/07/22 14:03:16;;;;;;;11.57;10.77;;;33.80;47.50;;;;;;6286214;28;20229;-66
2022/07/22 14:06:19;;;;;;;11.38;10.57;;;34.00;47.10;;;;;;6279551;28;20218;-65
2022/07/22 14:09:23;;;;;;;10.15;9.55;;;34.20;46.70;;;;;;6292328;28;20655;-65
2022/07/22 14:12:42;;;;;;;9.50;8.80;;;34.30;47.00;;;;;;6291457;28;20230;-65
2022/07/22 14:15:47;;;;;;;10.50;9.50;;;34.30;47.00;;;;;;6298968;28;20226;-65
2022/07/22 14:18:50;;;;;;;10.68;9.93;;;34.30;47.00;;;;;;6277664;28;20242;-65
2022/07/22 14:21:53;;;;;;;10.90;10.10;;;34.10;47.00;;;;;;6273905;28;20231;-66
2022/07/22 14:24:56;;;;;;;11.88;9.80;;;34.00;47.20;;;;;;6273814;28;20227;-64
2022/07/22 14:27:59;;;;;;;9.82;9.13;;;34.00;47.50;;;;;;6272568;28;20248;-66
2022/07/22 14:31:24;;;;;;;10.90;10.00;;;34.10;47.50;;;;;;6272472;28;20211;-66
2022/07/22 14:34:27;;;;;;;10.45;9.75;;;34.30;47.20;;;;;;6272915;28;20200;-65
2022/07/22 14:37:30;;;;;;;10.30;9.50;;;34.30;47.00;;;;;;6273316;28;20199;-63
2022/07/22 14:40:33;;;;;;;10.02;9.32;;;34.00;47.40;;;;;;6272727;28;20227;-65
2022/07/22 14:43:37;;;;;;;10.77;9.70;;;34.10;47.50;;;;;;6273094;28;20219;-65
2022/07/22 14:46:46;;;;;;;11.35;10.20;;;34.10;47.40;;;;;;6273206;28;20266;-64
2022/07/22 14:49:49;;;;;;;9.55;8.75;;;34.20;47.60;;;;;;6273361;28;20237;-65
2022/07/22 14:52:52;;;;;;;10.50;9.73;;;34.40;47.40;;;;;;6273172;28;20234;-64
2022/07/22 14:55:55;;;;;;;10.93;10.13;;;34.50;46.90;;;;;;6273036;28;20668;-65
2022/07/22 14:58:59;;;;;;;9.63;8.93;;;34.50;46.90;;;;;;6281002;28;20223;-63
2022/07/22 15:02:03;;;;;;;11.35;10.40;;;34.50;47.20;;;;;;6286374;28;20234;-63
2022/07/22 15:05:07;;;;;;;10.60;9.45;;;34.60;47.00;;;;;;6294502;28;20688;-65
2022/07/22 15:08:11;;;;;;;11.00;10.00;;;34.60;46.90;;;;;;6286182;28;20235;-64
2022/07/22 15:11:14;;;;;;;10.27;9.57;;;34.50;47.00;;;;;;6297282;28;20230;-63
2022/07/22 15:14:17;;;;;;;11.38;10.45;;;34.30;46.80;;;;;;6302457;28;20230;-64
2022/07/22 15:17:22;;;;;;;11.40;10.60;;;34.20;47.40;;;;;;6303085;28;20272;-64
2022/07/22 15:20:25;;;;;;;11.02;10.30;;;34.20;47.20;;;;;;6302773;28;20597;-64
2022/07/22 15:23:29;;;;;;;12.10;11.30;;;34.30;47.30;;;;;;6303541;28;20679;-65
2022/07/22 15:26:33;;;;;;;9.88;9.20;;;34.30;47.20;;;;;;6301746;28;20238;-65
2022/07/22 15:29:36;;;;;;;10.77;9.88;;;34.10;47.80;;;;;;6302455;28;20231;-65
2022/07/22 15:32:40;;;;;;;11.45;10.55;;;34.20;47.60;;;;;;6301853;28;20230;-63
2022/07/22 15:35:44;;;;;;;11.48;10.50;;;34.20;47.50;;;;;;6302097;28;20223;-65
2022/07/22 15:38:47;;;;;;;12.13;11.23;;;34.20;47.90;;;;;;6301474;28;20240;-64
2022/07/22 15:41:50;;;;;;;11.40;10.70;;;34.30;47.90;;;;;;6301467;28;20245;-66
2022/07/22 15:44:53;;;;;;;11.63;10.73;;;34.30;47.30;;;;;;6277657;28;20238;-64
2022/07/22 15:47:58;;;;;;;10.93;10.10;;;34.40;47.20;;;;;;6295809;28;20686;-64
2022/07/22 15:51:02;;;;;;;11.13;10.23;;;34.50;47.60;;;;;;6301462;28;20672;-64
2022/07/22 15:54:05;;;;;;;12.68;11.77;;;34.40;48.00;;;;;;6300550;28;20240;-64
2022/07/22 16:00:30;;;;;;;10.38;9.68;;;34.20;48.60;;;;;;6276122;28;20228;-65